sensor_id;sensor_type;location;lat;lon;timestamp;pressure;altitude;pressure_sealevel;temperature;humidity
22389;BME280;11362;48.102;11.620;2022-11-22T00:01:40;93345.31;;;23.32;38.99
22389;BME280;11362;48.102;11.620;2022-11-22T00:04:06;93344.53;;;23.32;38.77
22389;BME280;11362;48.102;11.620;2022-11-22T00:06:31;93344.53;;;23.32;39.15
22389;BME280;11362;48.102;11.620;2022-11-22T00:08:56;93345.31;;;23.32;39.08
22389;BME280;11362;48.102;11.620;2022-11-22T00:11:21;93347.28;;;23.32;38.99
22389;BME280;11362;48.102;11.620;2022-11-22T00:13:47;93348.53;;;23.31;38.98
22389;BME280;11362;48.102;11.620;2022-11-22T00:16:12;93329.94;;;23.31;38.87
22389;BME280;11362;48.102;11.620;2022-11-22T00:18:37;93336.38;;;23.28;38.87
22389;BME280;11362;48.102;11.620;2022-11-22T00:21:04;93333.16;;;23.30;39.00
22389;BME280;11362;48.102;11.620;2022-11-22T00:23:29;93337.44;;;23.31;39.07
22389;BME280;11362;48.102;11.620;2022-11-22T00:25:55;93344.22;;;23.30;39.07
22389;BME280;11362;48.102;11.620;2022-11-22T00:28:20;93350.53;;;23.30;38.96
22389;BME280;11362;48.102;11.620;2022-11-22T00:30:45;93345.47;;;23.29;38.89
22389;BME280;11362;48.102;11.620;2022-11-22T00:33:11;93329.28;;;23.27;39.01
22389;BME280;11362;48.102;11.620;2022-11-22T00:35:36;93349.47;;;23.28;38.91
22389;BME280;11362;48.102;11.620;2022-11-22T00:38:02;93355.00;;;23.28;38.98
22389;BME280;11362;48.102;11.620;2022-11-22T00:40:27;93351.00;;;23.29;38.87
22389;BME280;11362;48.102;11.620;2022-11-22T00:42:52;93362.09;;;23.29;38.89
22389;BME280;11362;48.102;11.620;2022-11-22T00:45:17;93355.75;;;23.28;38.89
22389;BME280;11362;48.102;11.620;2022-11-22T00:47:43;93369.59;;;23.28;39.00
22389;BME280;11362;48.102;11.620;2022-11-22T00:50:08;93371.63;;;23.28;38.83
22389;BME280;11362;48.102;11.620;2022-11-22T00:52:33;93366.09;;;23.28;38.77
22389;BME280;11362;48.102;11.620;2022-11-22T00:54:59;93374.41;;;23.28;38.77
22389;BME280;11362;48.102;11.620;2022-11-22T00:57:24;93368.06;;;23.27;38.83
22389;BME280;11362;48.102;11.620;2022-11-22T00:59:49;93371.63;;;23.28;38.84
22389;BME280;11362;48.102;11.620;2022-11-22T01:02:15;93363.78;;;23.26;38.90
22389;BME280;11362;48.102;11.620;2022-11-22T01:04:40;93375.59;;;23.27;38.98
22389;BME280;11362;48.102;11.620;2022-11-22T01:07:05;93385.94;;;23.26;38.98
22389;BME280;11362;48.102;11.620;2022-11-22T01:09:30;93386.69;;;23.27;38.96
22389;BME280;11362;48.102;11.620;2022-11-22T01:11:56;93385.16;;;23.26;38.85
22389;BME280;11362;48.102;11.620;2022-11-22T01:14:21;93379.59;;;23.26;38.80
22389;BME280;11362;48.102;11.620;2022-11-22T01:16:47;93383.59;;;23.25;38.84
22389;BME280;11362;48.102;11.620;2022-11-22T01:19:12;93366.25;;;23.24;38.73
22389;BME280;11362;48.102;11.620;2022-11-22T01:21:37;93370.53;;;23.25;38.63
22389;BME280;11362;48.102;11.620;2022-11-22T01:24:03;93362.97;;;23.26;38.68
22389;BME280;11362;48.102;11.620;2022-11-22T01:26:28;93383.16;;;23.26;38.71
22389;BME280;11362;48.102;11.620;2022-11-22T01:28:53;93361.44;;;23.25;38.67
22389;BME280;11362;48.102;11.620;2022-11-22T01:31:19;93359.91;;;23.24;38.51
22389;BME280;11362;48.102;11.620;2022-11-22T01:33:44;93345.63;;;23.25;38.86
22389;BME280;11362;48.102;11.620;2022-11-22T01:36:09;93355.16;;;23.24;38.66
22389;BME280;11362;48.102;11.620;2022-11-22T01:38:35;93361.44;;;23.25;38.67
22389;BME280;11362;48.102;11.620;2022-11-22T01:41:00;93337.31;;;23.25;38.50
22389;BME280;11362;48.102;11.620;2022-11-22T01:43:27;93335.00;;;23.24;38.55
22389;BME280;11362;48.102;11.620;2022-11-22T01:46:00;93333.44;;;23.23;38.70
22389;BME280;11362;48.102;11.620;2022-11-22T01:53:57;93332.22;;;23.24;38.50
22389;BME280;11362;48.102;11.620;2022-11-22T01:56:26;93324.34;;;23.22;38.54
22389;BME280;11362;48.102;11.620;2022-11-22T01:58:59;93334.69;;;23.22;38.61
22389;BME280;11362;48.102;11.620;2022-11-22T02:01:27;93340.97;;;23.22;38.56
22389;BME280;11362;48.102;11.620;2022-11-22T02:03:54;93337.44;;;23.22;38.44
22389;BME280;11362;48.102;11.620;2022-11-22T02:06:21;93333.16;;;23.21;38.47
22389;BME280;11362;48.102;11.620;2022-11-22T02:09:01;93330.38;;;23.21;38.46
22389;BME280;11362;48.102;11.620;2022-11-22T02:11:28;93326.38;;;23.22;38.44
22389;BME280;11362;48.102;11.620;2022-11-22T02:13:54;93330.38;;;23.21;38.56
22389;BME280;11362;48.102;11.620;2022-11-22T02:16:20;93347.00;;;23.21;38.46
22389;BME280;11362;48.102;11.620;2022-11-22T02:18:46;93348.97;;;23.20;38.68
22389;BME280;11362;48.102;11.620;2022-11-22T02:21:11;93344.22;;;23.21;38.65
22389;BME280;11362;48.102;11.620;2022-11-22T02:26:07;93358.84;;;23.21;38.32
22389;BME280;11362;48.102;11.620;2022-11-22T02:28:35;93356.50;;;23.20;38.38
22389;BME280;11362;48.102;11.620;2022-11-22T02:31:01;93348.97;;;23.20;38.35
22389;BME280;11362;48.102;11.620;2022-11-22T02:33:27;93348.97;;;23.20;38.45
22389;BME280;11362;48.102;11.620;2022-11-22T02:35:52;93347.00;;;23.21;38.56
22389;BME280;11362;48.102;11.620;2022-11-22T02:38:36;93347.00;;;23.21;38.36
22389;BME280;11362;48.102;11.620;2022-11-22T02:41:07;93352.06;;;23.22;38.29
22389;BME280;11362;48.102;11.620;2022-11-22T02:43:37;93348.19;;;23.20;38.28
22389;BME280;11362;48.102;11.620;2022-11-22T02:46:05;93352.53;;;23.21;38.32
22389;BME280;11362;48.102;11.620;2022-11-22T02:48:31;93358.06;;;23.21;38.26
22389;BME280;11362;48.102;11.620;2022-11-22T02:50:57;93361.59;;;23.21;38.43
22389;BME280;11362;48.102;11.620;2022-11-22T02:53:22;93360.84;;;23.21;38.45
22389;BME280;11362;48.102;11.620;2022-11-22T02:55:47;93364.81;;;23.20;38.23
22389;BME280;11362;48.102;11.620;2022-11-22T02:58:12;93364.06;;;23.19;38.51
22389;BME280;11362;48.102;11.620;2022-11-22T03:00:38;93365.59;;;23.20;38.44
22389;BME280;11362;48.102;11.620;2022-11-22T03:03:04;93364.81;;;23.20;38.34
22389;BME280;11362;48.102;11.620;2022-11-22T03:05:29;93360.84;;;23.21;38.49
22389;BME280;11362;48.102;11.620;2022-11-22T03:07:55;93372.38;;;23.19;38.46
22389;BME280;11362;48.102;11.620;2022-11-22T03:10:20;93372.38;;;23.19;38.32
22389;BME280;11362;48.102;11.620;2022-11-22T03:12:45;93368.06;;;23.18;38.36
22389;BME280;11362;48.102;11.620;2022-11-22T03:15:11;93362.53;;;23.18;38.37
22389;BME280;11362;48.102;11.620;2022-11-22T03:17:36;93364.06;;;23.19;38.45
22389;BME280;11362;48.102;11.620;2022-11-22T03:20:02;93357.00;;;23.18;38.47
22389;BME280;11362;48.102;11.620;2022-11-22T03:22:27;93354.22;;;23.18;38.39
22389;BME280;11362;48.102;11.620;2022-11-22T03:24:53;93359.75;;;23.18;38.26
22389;BME280;11362;48.102;11.620;2022-11-22T03:27:18;93367.28;;;23.18;38.25
22389;BME280;11362;48.102;11.620;2022-11-22T03:29:43;93368.81;;;23.19;38.50
22389;BME280;11362;48.102;11.620;2022-11-22T03:32:09;93377.63;;;23.17;38.27
22389;BME280;11362;48.102;11.620;2022-11-22T03:34:34;93370.06;;;23.18;38.35
22389;BME280;11362;48.102;11.620;2022-11-22T03:36:59;93378.38;;;23.18;38.37
22389;BME280;11362;48.102;11.620;2022-11-22T03:39:24;93386.69;;;23.18;38.40
22389;BME280;11362;48.102;11.620;2022-11-22T03:41:50;93390.69;;;23.17;38.52
22389;BME280;11362;48.102;11.620;2022-11-22T03:44:15;93390.69;;;23.17;38.51
22389;BME280;11362;48.102;11.620;2022-11-22T03:46:40;93394.97;;;23.18;38.35
22389;BME280;11362;48.102;11.620;2022-11-22T03:49:06;93396.66;;;23.15;38.57
22389;BME280;11362;48.102;11.620;2022-11-22T03:51:31;93401.75;;;23.17;38.20
22389;BME280;11362;48.102;11.620;2022-11-22T03:53:56;93392.69;;;23.16;38.37
22389;BME280;11362;48.102;11.620;2022-11-22T03:56:22;93394.22;;;23.17;38.18
22389;BME280;11362;48.102;11.620;2022-11-22T03:58:47;93400.53;;;23.18;38.12
22389;BME280;11362;48.102;11.620;2022-11-22T04:01:12;93394.97;;;23.18;38.31
22389;BME280;11362;48.102;11.620;2022-11-22T04:03:38;93399.78;;;23.17;38.56
22389;BME280;11362;48.102;11.620;2022-11-22T04:06:03;93394.97;;;23.18;38.47
22389;BME280;11362;48.102;11.620;2022-11-22T04:08:28;93403.00;;;23.16;38.64
22389;BME280;11362;48.102;11.620;2022-11-22T04:10:53;93398.22;;;23.16;38.70
22389;BME280;11362;48.102;11.620;2022-11-22T04:13:19;93404.53;;;23.17;38.59
22389;BME280;11362;48.102;11.620;2022-11-22T04:15:44;93403.78;;;23.16;38.65
22389;BME280;11362;48.102;11.620;2022-11-22T04:18:10;93408.06;;;23.17;38.35
22389;BME280;11362;48.102;11.620;2022-11-22T04:20:36;93399.00;;;23.17;38.51
22389;BME280;11362;48.102;11.620;2022-11-22T04:25:36;93407.28;;;23.17;38.51
22389;BME280;11362;48.102;11.620;2022-11-22T04:28:03;93399.00;;;23.17;38.52
22389;BME280;11362;48.102;11.620;2022-11-22T04:30:29;93399.00;;;23.17;38.44
22389;BME280;11362;48.102;11.620;2022-11-22T04:32:54;93403.28;;;23.18;38.51
22389;BME280;11362;48.102;11.620;2022-11-22T04:35:19;93404.53;;;23.17;38.04
22389;BME280;11362;48.102;11.620;2022-11-22T04:37:51;93410.06;;;23.17;38.36
22389;BME280;11362;48.102;11.620;2022-11-22T04:40:16;93405.31;;;23.17;38.06
22389;BME280;11362;48.102;11.620;2022-11-22T04:42:42;93404.53;;;23.17;38.40
22389;BME280;11362;48.102;11.620;2022-11-22T04:45:07;93416.38;;;23.17;38.31
22389;BME280;11362;48.102;11.620;2022-11-22T04:47:33;93401.31;;;23.18;38.23
22389;BME280;11362;48.102;11.620;2022-11-22T04:49:59;93409.63;;;23.18;38.03
22389;BME280;11362;48.102;11.620;2022-11-22T04:52:24;93406.06;;;23.18;38.04
22389;BME280;11362;48.102;11.620;2022-11-22T04:54:50;93404.53;;;23.17;38.28
22389;BME280;11362;48.102;11.620;2022-11-22T04:57:15;93403.28;;;23.18;38.16
22389;BME280;11362;48.102;11.620;2022-11-22T04:59:40;93397.75;;;23.18;37.99
22389;BME280;11362;48.102;11.620;2022-11-22T05:02:06;93405.31;;;23.17;38.07
22389;BME280;11362;48.102;11.620;2022-11-22T05:04:31;93403.78;;;23.16;38.45
22389;BME280;11362;48.102;11.620;2022-11-22T05:06:56;93408.06;;;23.17;38.12
22389;BME280;11362;48.102;11.620;2022-11-22T05:09:22;93403.00;;;23.16;38.42
22389;BME280;11362;48.102;11.620;2022-11-22T05:11:47;93404.53;;;23.17;38.35
22389;BME280;11362;48.102;11.620;2022-11-22T05:14:13;93413.63;;;23.17;38.31
22389;BME280;11362;48.102;11.620;2022-11-22T05:16:38;93406.06;;;23.18;38.37
22389;BME280;11362;48.102;11.620;2022-11-22T05:19:03;93406.06;;;23.18;38.37
22389;BME280;11362;48.102;11.620;2022-11-22T05:21:29;93412.84;;;23.17;38.31
22389;BME280;11362;48.102;11.620;2022-11-22T05:23:54;93416.84;;;23.16;38.33
22389;BME280;11362;48.102;11.620;2022-11-22T05:26:20;93423.91;;;23.17;38.15
22389;BME280;11362;48.102;11.620;2022-11-22T05:28:45;93416.84;;;23.16;38.27
22389;BME280;11362;48.102;11.620;2022-11-22T05:31:14;93419.59;;;23.16;38.27
22389;BME280;11362;48.102;11.620;2022-11-22T05:33:41;93423.28;;;23.13;37.94
22389;BME280;11362;48.102;11.620;2022-11-22T05:36:07;93424.38;;;23.15;38.18
22389;BME280;11362;48.102;11.620;2022-11-22T05:38:33;93428.69;;;23.16;37.89
22389;BME280;11362;48.102;11.620;2022-11-22T05:41:03;93428.69;;;23.16;37.85
22389;BME280;11362;48.102;11.620;2022-11-22T05:43:29;93427.13;;;23.15;37.94
22389;BME280;11362;48.102;11.620;2022-11-22T05:45:55;93430.69;;;23.16;37.90
22389;BME280;11362;48.102;11.620;2022-11-22T05:48:20;93429.91;;;23.15;37.75
22389;BME280;11362;48.102;11.620;2022-11-22T05:50:45;93421.94;;;23.17;37.84
22389;BME280;11362;48.102;11.620;2022-11-22T05:53:11;93425.94;;;23.16;37.90
22389;BME280;11362;48.102;11.620;2022-11-22T05:55:36;93430.69;;;23.16;37.86
22389;BME280;11362;48.102;11.620;2022-11-22T05:58:02;93432.22;;;23.17;37.78
22389;BME280;11362;48.102;11.620;2022-11-22T06:00:28;93431.00;;;23.18;38.16
22389;BME280;11362;48.102;11.620;2022-11-22T06:02:58;93431.28;;;23.20;38.56
22389;BME280;11362;48.102;11.620;2022-11-22T06:05:24;93439.94;;;23.22;38.96
22389;BME280;11362;48.102;11.620;2022-11-22T06:07:49;93433.16;;;23.23;38.95
22389;BME280;11362;48.102;11.620;2022-11-22T06:10:14;93433.47;;;23.25;39.44
22389;BME280;11362;48.102;11.620;2022-11-22T06:12:40;93425.94;;;23.25;39.57
22389;BME280;11362;48.102;11.620;2022-11-22T06:15:05;93438.56;;;23.26;39.68
22389;BME280;11362;48.102;11.620;2022-11-22T06:17:31;93438.56;;;23.26;39.61
22389;BME280;11362;48.102;11.620;2022-11-22T06:19:56;93407.63;;;23.28;40.02
22389;BME280;11362;48.102;11.620;2022-11-22T06:22:21;93376.38;;;23.27;39.77
22389;BME280;11362;48.102;11.620;2022-11-22T06:24:47;93382.72;;;23.28;39.84
22389;BME280;11362;48.102;11.620;2022-11-22T06:27:12;93381.13;;;23.27;39.73
22389;BME280;11362;48.102;11.620;2022-11-22T06:29:37;93450.09;;;23.25;39.43
22389;BME280;11362;48.102;11.620;2022-11-22T06:32:03;93473.16;;;23.22;38.44
22389;BME280;11362;48.102;11.620;2022-11-22T06:34:28;93451.91;;;23.19;38.64
22389;BME280;11362;48.102;11.620;2022-11-22T06:36:53;93446.84;;;23.17;38.92
22389;BME280;11362;48.102;11.620;2022-11-22T06:39:18;93449.47;;;23.21;39.40
22389;BME280;11362;48.102;11.620;2022-11-22T06:41:44;93449.78;;;23.23;39.57
22389;BME280;11362;48.102;11.620;2022-11-22T06:44:09;93463.94;;;23.25;39.58
22389;BME280;11362;48.102;11.620;2022-11-22T06:46:35;93495.94;;;23.26;39.88
22389;BME280;11362;48.102;11.620;2022-11-22T06:49:01;93495.63;;;23.24;39.98
22389;BME280;11362;48.102;11.620;2022-11-22T06:51:28;93492.06;;;23.23;40.10
22389;BME280;11362;48.102;11.620;2022-11-22T06:53:55;93475.47;;;23.23;39.54
22389;BME280;11362;48.102;11.620;2022-11-22T06:56:34;93502.41;;;23.23;39.43
22389;BME280;11362;48.102;11.620;2022-11-22T06:59:02;93485.00;;;23.22;39.48
22389;BME280;11362;48.102;11.620;2022-11-22T07:01:28;93515.47;;;23.22;39.46
22389;BME280;11362;48.102;11.620;2022-11-22T07:03:55;93523.03;;;23.22;39.12
22389;BME280;11362;48.102;11.620;2022-11-22T07:06:22;93521.78;;;23.23;38.85
22389;BME280;11362;48.102;11.620;2022-11-22T07:08:47;93527.34;;;23.23;38.95
22389;BME280;11362;48.102;11.620;2022-11-22T07:11:15;93523.78;;;23.22;38.90
22389;BME280;11362;48.102;11.620;2022-11-22T07:13:41;93512.69;;;23.22;39.44
22389;BME280;11362;48.102;11.620;2022-11-22T07:16:10;93513.47;;;23.23;39.15
22389;BME280;11362;48.102;11.620;2022-11-22T07:18:35;93510.41;;;23.21;39.06
22389;BME280;11362;48.102;11.620;2022-11-22T07:21:05;93515.94;;;23.21;39.31
22389;BME280;11362;48.102;11.620;2022-11-22T07:23:31;93519.91;;;23.20;39.19
22389;BME280;11362;48.102;11.620;2022-11-22T07:25:57;93522.69;;;23.20;39.26
22389;BME280;11362;48.102;11.620;2022-11-22T07:28:23;93526.25;;;23.20;39.29
22389;BME280;11362;48.102;11.620;2022-11-22T07:30:48;93528.22;;;23.20;39.28
22389;BME280;11362;48.102;11.620;2022-11-22T07:33:14;93529.47;;;23.19;39.37
22389;BME280;11362;48.102;11.620;2022-11-22T07:35:39;93535.34;;;23.21;39.39
22389;BME280;11362;48.102;11.620;2022-11-22T07:38:05;93536.53;;;23.20;39.43
22389;BME280;11362;48.102;11.620;2022-11-22T07:40:30;93547.63;;;23.20;39.46
22389;BME280;11362;48.102;11.620;2022-11-22T07:42:55;93539.00;;;23.18;39.42
22389;BME280;11362;48.102;11.620;2022-11-22T07:45:20;93548.84;;;23.19;38.91
22389;BME280;11362;48.102;11.620;2022-11-22T07:47:46;93547.63;;;23.20;39.21
22389;BME280;11362;48.102;11.620;2022-11-22T07:50:11;93525.47;;;23.20;39.12
22389;BME280;11362;48.102;11.620;2022-11-22T07:52:36;93590.38;;;23.19;38.97
22389;BME280;11362;48.102;11.620;2022-11-22T07:55:02;93591.19;;;23.19;38.77
22389;BME280;11362;48.102;11.620;2022-11-22T07:57:28;93568.56;;;23.21;38.88
22389;BME280;11362;48.102;11.620;2022-11-22T07:59:53;93569.78;;;23.20;38.75
22389;BME280;11362;48.102;11.620;2022-11-22T08:02:18;93576.88;;;23.21;39.15
22389;BME280;11362;48.102;11.620;2022-11-22T08:04:44;93581.19;;;23.22;39.17
22389;BME280;11362;48.102;11.620;2022-11-22T08:07:09;93575.66;;;23.22;39.45
22389;BME280;11362;48.102;11.620;2022-11-22T08:09:35;93582.28;;;23.24;39.70
22389;BME280;11362;48.102;11.620;2022-11-22T08:12:01;93577.94;;;23.23;39.63
22389;BME280;11362;48.102;11.620;2022-11-22T08:14:26;93584.72;;;23.22;39.67
22389;BME280;11362;48.102;11.620;2022-11-22T08:16:52;93588.28;;;23.23;39.78
22389;BME280;11362;48.102;11.620;2022-11-22T08:19:17;93588.59;;;23.25;39.72
22389;BME280;11362;48.102;11.620;2022-11-22T08:21:43;93599.66;;;23.25;39.55
22389;BME280;11362;48.102;11.620;2022-11-22T08:24:09;93595.34;;;23.24;39.61
22389;BME280;11362;48.102;11.620;2022-11-22T08:26:35;93605.97;;;23.25;39.80
22389;BME280;11362;48.102;11.620;2022-11-22T08:29:03;93606.75;;;23.26;39.75
22389;BME280;11362;48.102;11.620;2022-11-22T08:31:28;93612.63;;;23.28;39.53
22389;BME280;11362;48.102;11.620;2022-11-22T08:33:54;93620.94;;;23.28;39.85
22389;BME280;11362;48.102;11.620;2022-11-22T08:36:19;93626.47;;;23.28;39.82
22389;BME280;11362;48.102;11.620;2022-11-22T08:38:45;93623.69;;;23.28;39.82
22389;BME280;11362;48.102;11.620;2022-11-22T08:41:10;93635.97;;;23.27;39.58
22389;BME280;11362;48.102;11.620;2022-11-22T08:43:35;93634.00;;;23.27;39.85
22389;BME280;11362;48.102;11.620;2022-11-22T08:46:01;93634.44;;;23.26;39.76
22389;BME280;11362;48.102;11.620;2022-11-22T08:48:28;93630.44;;;23.27;39.98
22389;BME280;11362;48.102;11.620;2022-11-22T08:50:55;93632.00;;;23.28;39.74
22389;BME280;11362;48.102;11.620;2022-11-22T08:53:22;93624.91;;;23.27;39.65
22389;BME280;11362;48.102;11.620;2022-11-22T08:55:48;93640.31;;;23.28;39.86
22389;BME280;11362;48.102;11.620;2022-11-22T08:58:13;93639.53;;;23.27;39.86
22389;BME280;11362;48.102;11.620;2022-11-22T09:00:39;93650.63;;;23.27;39.71
22389;BME280;11362;48.102;11.620;2022-11-22T09:03:04;93652.94;;;23.29;40.09
22389;BME280;11362;48.102;11.620;2022-11-22T09:05:30;93656.16;;;23.27;39.90
22389;BME280;11362;48.102;11.620;2022-11-22T09:07:56;93648.63;;;23.28;39.89
22389;BME280;11362;48.102;11.620;2022-11-22T09:10:22;93654.16;;;23.28;39.77
22389;BME280;11362;48.102;11.620;2022-11-22T09:12:48;93661.25;;;23.29;40.07
22389;BME280;11362;48.102;11.620;2022-11-22T09:15:14;93659.72;;;23.28;39.88
22389;BME280;11362;48.102;11.620;2022-11-22T09:17:39;93659.72;;;23.28;39.79
22389;BME280;11362;48.102;11.620;2022-11-22T09:20:05;93666.00;;;23.28;39.68
22389;BME280;11362;48.102;11.620;2022-11-22T09:22:31;93670.78;;;23.28;39.98
22389;BME280;11362;48.102;11.620;2022-11-22T09:24:56;93672.34;;;23.29;39.75
22389;BME280;11362;48.102;11.620;2022-11-22T09:27:22;93676.34;;;23.28;39.99
22389;BME280;11362;48.102;11.620;2022-11-22T09:29:47;93669.56;;;23.29;39.99
22389;BME280;11362;48.102;11.620;2022-11-22T09:32:12;93675.53;;;23.27;39.78
22389;BME280;11362;48.102;11.620;2022-11-22T09:34:37;93675.09;;;23.29;40.34
22389;BME280;11362;48.102;11.620;2022-11-22T09:37:03;93680.63;;;23.29;39.85
22389;BME280;11362;48.102;11.620;2022-11-22T09:39:28;93677.88;;;23.29;39.74
22389;BME280;11362;48.102;11.620;2022-11-22T09:45:30;93681.41;;;23.29;39.74
22389;BME280;11362;48.102;11.620;2022-11-22T09:48:04;93693.25;;;23.30;39.85
22389;BME280;11362;48.102;11.620;2022-11-22T09:53:13;93688.94;;;23.29;39.84
22389;BME280;11362;48.102;11.620;2022-11-22T09:55:51;93684.16;;;23.29;39.82
22389;BME280;11362;48.102;11.620;2022-11-22T09:58:48;93686.94;;;23.29;39.82
22389;BME280;11362;48.102;11.620;2022-11-22T10:03:53;93694.50;;;23.29;39.98
22389;BME280;11362;48.102;11.620;2022-11-22T10:06:26;93700.03;;;23.29;39.74
22389;BME280;11362;48.102;11.620;2022-11-22T10:08:58;93697.25;;;23.29;39.74
22389;BME280;11362;48.102;11.620;2022-11-22T10:19:57;93691.25;;;23.30;39.76
22389;BME280;11362;48.102;11.620;2022-11-22T10:22:27;93694.81;;;23.31;39.81
22389;BME280;11362;48.102;11.620;2022-11-22T10:24:53;93684.94;;;23.30;39.75
22389;BME280;11362;48.102;11.620;2022-11-22T10:27:19;93686.50;;;23.31;39.71
22389;BME280;11362;48.102;11.620;2022-11-22T10:30:00;93696.03;;;23.30;39.73
22389;BME280;11362;48.102;11.620;2022-11-22T10:32:57;93689.25;;;23.31;39.69
22389;BME280;11362;48.102;11.620;2022-11-22T10:35:44;93687.28;;;23.31;39.59
22389;BME280;11362;48.102;11.620;2022-11-22T10:41:34;93688.03;;;23.32;39.93
22389;BME280;11362;48.102;11.620;2022-11-22T10:44:15;93690.06;;;23.31;39.91
22389;BME280;11362;48.102;11.620;2022-11-22T10:47:15;93683.72;;;23.31;39.97
22389;BME280;11362;48.102;11.620;2022-11-22T10:55:03;93671.72;;;23.33;40.24
22389;BME280;11362;48.102;11.620;2022-11-22T10:57:38;93668.94;;;23.33;40.27
22389;BME280;11362;48.102;11.620;2022-11-22T11:00:21;93676.06;;;23.35;40.22
22389;BME280;11362;48.102;11.620;2022-11-22T11:03:02;93676.06;;;23.35;39.91
22389;BME280;11362;48.102;11.620;2022-11-22T11:08:09;93686.38;;;23.34;39.91
22389;BME280;11362;48.102;11.620;2022-11-22T11:10:39;93685.56;;;23.33;40.33
22389;BME280;11362;48.102;11.620;2022-11-22T11:13:19;93683.59;;;23.34;40.16
22389;BME280;11362;48.102;11.620;2022-11-22T11:16:08;93685.56;;;23.33;40.07
22389;BME280;11362;48.102;11.620;2022-11-22T11:18:56;93685.56;;;23.33;40.05
22389;BME280;11362;48.102;11.620;2022-11-22T11:21:22;93678.50;;;23.33;39.84
22389;BME280;11362;48.102;11.620;2022-11-22T11:23:48;93683.28;;;23.32;40.25
22389;BME280;11362;48.102;11.620;2022-11-22T11:26:39;93683.28;;;23.32;40.05
22389;BME280;11362;48.102;11.620;2022-11-22T11:31:45;93689.56;;;23.33;40.04
22389;BME280;11362;48.102;11.620;2022-11-22T11:34:22;93683.28;;;23.32;39.87
22389;BME280;11362;48.102;11.620;2022-11-22T11:36:49;93683.28;;;23.32;39.72
22389;BME280;11362;48.102;11.620;2022-11-22T11:39:39;93674.63;;;23.30;39.64
22389;BME280;11362;48.102;11.620;2022-11-22T11:42:29;93685.72;;;23.30;40.02
22389;BME280;11362;48.102;11.620;2022-11-22T11:47:42;93674.63;;;23.30;39.92
22389;BME280;11362;48.102;11.620;2022-11-22T11:50:27;93685.72;;;23.30;40.01
22389;BME280;11362;48.102;11.620;2022-11-22T11:53:03;93682.50;;;23.32;39.75
22389;BME280;11362;48.102;11.620;2022-11-22T11:55:35;93703.91;;;23.31;39.80
22389;BME280;11362;48.102;11.620;2022-11-22T11:58:18;93687.28;;;23.31;40.05
22389;BME280;11362;48.102;11.620;2022-11-22T12:00:44;93679.41;;;23.30;39.80
22389;BME280;11362;48.102;11.620;2022-11-22T12:03:11;93677.09;;;23.28;39.79
22389;BME280;11362;48.102;11.620;2022-11-22T12:05:39;93681.88;;;23.28;40.03
22389;BME280;11362;48.102;11.620;2022-11-22T12:08:30;93670.13;;;23.24;39.77
22389;BME280;11362;48.102;11.620;2022-11-22T12:11:04;93683.41;;;23.29;39.88
22389;BME280;11362;48.102;11.620;2022-11-22T12:13:37;93677.09;;;23.28;39.55
22389;BME280;11362;48.102;11.620;2022-11-22T12:16:15;93688.16;;;23.28;39.67
22389;BME280;11362;48.102;11.620;2022-11-22T12:18:49;93681.88;;;23.28;39.75
22389;BME280;11362;48.102;11.620;2022-11-22T12:21:34;93680.31;;;23.27;40.05
22389;BME280;11362;48.102;11.620;2022-11-22T12:24:13;93683.41;;;23.29;40.19
22389;BME280;11362;48.102;11.620;2022-11-22T12:26:41;93681.88;;;23.28;40.09
22389;BME280;11362;48.102;11.620;2022-11-22T12:29:10;93682.19;;;23.30;40.16
22389;BME280;11362;48.102;11.620;2022-11-22T12:31:43;93679.84;;;23.28;40.21
22389;BME280;11362;48.102;11.620;2022-11-22T12:34:35;93677.88;;;23.29;40.16
22389;BME280;11362;48.102;11.620;2022-11-22T12:37:08;93678.19;;;23.31;40.01
22389;BME280;11362;48.102;11.620;2022-11-22T12:39:35;93678.19;;;23.31;39.98
22389;BME280;11362;48.102;11.620;2022-11-22T12:42:07;93661.56;;;23.31;40.17
22389;BME280;11362;48.102;11.620;2022-11-22T12:44:41;93665.56;;;23.30;39.97
22389;BME280;11362;48.102;11.620;2022-11-22T12:47:12;93658.47;;;23.29;40.19
22389;BME280;11362;48.102;11.620;2022-11-22T12:49:42;93661.25;;;23.29;40.03
22389;BME280;11362;48.102;11.620;2022-11-22T12:52:32;93660.47;;;23.28;40.13
22389;BME280;11362;48.102;11.620;2022-11-22T12:55:04;93663.22;;;23.28;39.98
22389;BME280;11362;48.102;11.620;2022-11-22T12:57:49;93645.84;;;23.28;39.88
22389;BME280;11362;48.102;11.620;2022-11-22T13:00:21;93652.16;;;23.28;40.05
22389;BME280;11362;48.102;11.620;2022-11-22T13:05:19;93649.84;;;23.27;40.22
22389;BME280;11362;48.102;11.620;2022-11-22T13:10:33;93645.84;;;23.28;40.32
22389;BME280;11362;48.102;11.620;2022-11-22T13:13:01;93639.84;;;23.29;40.36
22389;BME280;11362;48.102;11.620;2022-11-22T13:15:32;93639.09;;;23.29;40.42
22389;BME280;11362;48.102;11.620;2022-11-22T13:17:59;93644.63;;;23.29;40.49
22389;BME280;11362;48.102;11.620;2022-11-22T13:20:28;93646.63;;;23.28;40.25
22389;BME280;11362;48.102;11.620;2022-11-22T13:28:24;93648.63;;;23.28;40.33
22389;BME280;11362;48.102;11.620;2022-11-22T13:33:38;93653.25;;;23.31;40.40
22389;BME280;11362;48.102;11.620;2022-11-22T13:38:58;93655.72;;;23.29;40.32
22389;BME280;11362;48.102;11.620;2022-11-22T13:44:16;93647.06;;;23.27;39.97
22389;BME280;11362;48.102;11.620;2022-11-22T13:52:03;93664.03;;;23.29;40.12
22389;BME280;11362;48.102;11.620;2022-11-22T13:57:04;93670.78;;;23.28;39.92
22389;BME280;11362;48.102;11.620;2022-11-22T13:59:30;93677.88;;;23.29;39.95
22389;BME280;11362;48.102;11.620;2022-11-22T14:01:58;93670.00;;;23.27;39.78
22389;BME280;11362;48.102;11.620;2022-11-22T14:12:33;93674.44;;;23.25;40.09
22389;BME280;11362;48.102;11.620;2022-11-22T14:17:54;93683.53;;;23.25;39.89